Time;durP1;ratioP1;P1;durP2;ratioP2;P2;SDS_P1;SDS_P2;PMS_P1;PMS_P2;Temp;Humidity;BMP_temperature;BMP_pressure;BME280_temperature;BME280_humidity;BME280_pressure;Samples;Min_cycle;Max_cycle;Signal;HPM_P1;HPM_P2
2022/09/12 00:01:27;;;;;;;2.28;1.70;;;;;;;20.83;65.56;100845.09;4932633;29;20051;-82
2022/09/12 00:03:58;;;;;;;1.95;1.70;;;;;;;20.76;64.63;100845.66;4932105;29;20379;-81
2022/09/12 00:06:29;;;;;;;1.73;1.55;;;;;;;20.77;65.34;100842.53;4931639;29;20051;-81
2022/09/12 00:09:00;;;;;;;8.32;1.42;;;;;;;20.91;64.60;100839.47;4932166;29;20506;-81
2022/09/12 00:11:29;;;;;;;1.63;1.42;;;;;;;20.90;65.53;100850.94;4933135;29;20052;-81
2022/09/12 00:13:59;;;;;;;1.92;1.73;;;;;;;20.85;65.43;100848.38;4932746;29;20040;-82
2022/09/12 00:16:29;;;;;;;1.83;1.70;;;;;;;20.85;64.54;100843.63;4932978;29;20059;-82
2022/09/12 00:18:57;;;;;;;4.47;1.73;;;;;;;20.85;65.07;100838.06;4933310;29;20364;-82
2022/09/12 00:21:26;;;;;;;1.40;1.30;;;;;;;20.85;65.67;100842.81;4933056;29;20494;-82
2022/09/12 00:23:54;;;;;;;1.80;1.60;;;;;;;20.86;65.03;100839.69;4928999;29;20071;-82
2022/09/12 00:26:22;;;;;;;1.50;1.40;;;;;;;20.90;65.22;100851.75;4917516;29;20056;-81
2022/09/12 00:28:51;;;;;;;1.17;1.10;;;;;;;20.93;63.70;100848.28;4924480;29;20058;-82
2022/09/12 00:31:22;;;;;;;2.70;1.33;;;;;;;20.75;62.33;100846.81;4932727;29;20190;-81
2022/09/12 00:33:52;;;;;;;1.42;1.33;;;;;;;20.70;63.31;100844.25;4918993;29;20051;-82
2022/09/12 00:36:23;;;;;;;1.40;1.20;;;;;;;20.76;61.91;100845.66;4916376;29;20051;-82
2022/09/12 00:38:53;;;;;;;5.10;1.15;;;;;;;20.54;62.55;100845.69;4917678;29;20048;-81
2022/09/12 00:41:24;;;;;;;3.38;1.48;;;;;;;20.60;61.63;100839.94;4917502;29;20060;-81
2022/09/12 00:43:56;;;;;;;1.30;1.15;;;;;;;20.65;61.26;100846.09;4918063;29;20044;-81
2022/09/12 00:46:51;;;;;;;1.23;1.00;;;;;;;20.59;61.49;100849.44;4917266;29;20044;-82
2022/09/12 00:49:27;;;;;;;3.10;1.30;;;;;;;20.64;63.24;100850.00;4917829;29;20062;-82
2022/09/12 00:51:58;;;;;;;1.67;0.98;;;;;;;20.56;63.48;100850.94;4927951;29;20067;-82
2022/09/12 00:54:31;;;;;;;1.30;1.20;;;;;;;20.62;63.90;100840.41;4931855;29;20036;-82
2022/09/12 00:57:01;;;;;;;1.23;1.15;;;;;;;20.54;63.51;100844.91;4920063;29;20047;-82
2022/09/12 00:59:48;;;;;;;3.35;1.27;;;;;;;20.62;61.91;100841.22;4917023;29;20055;-82
2022/09/12 01:02:16;;;;;;;1.42;1.20;;;;;;;20.51;62.10;100845.56;4903859;29;20049;-82
2022/09/12 01:04:44;;;;;;;0.88;0.88;;;;;;;20.44;62.02;100848.09;4916075;29;20799;-81
2022/09/12 01:07:14;;;;;;;1.38;0.93;;;;;;;20.48;62.74;100835.16;4915264;29;20067;-81
2022/09/12 01:09:44;;;;;;;1.48;0.90;;;;;;;20.48;62.34;100835.16;4907904;29;20388;-81
2022/09/12 01:12:14;;;;;;;1.20;1.10;;;;;;;20.41;63.07;100830.13;4921266;29;20070;-82
2022/09/12 01:14:42;;;;;;;3.58;1.52;;;;;;;20.56;61.62;100828.69;4927447;29;20051;-81
2022/09/12 01:17:12;;;;;;;3.30;1.45;;;;;;;20.52;62.26;100831.34;4916680;29;20495;-82
2022/09/12 01:19:59;;;;;;;2.40;1.10;;;;;;;20.59;62.09;100836.34;4916678;29;20059;-82
2022/09/12 01:22:51;;;;;;;1.60;1.50;;;;;;;20.55;61.87;100829.84;4916363;29;20063;-82
2022/09/12 01:25:47;;;;;;;2.13;1.50;;;;;;;20.48;62.75;100837.94;4916449;29;20064;-81
2022/09/12 01:28:33;;;;;;;1.02;1.00;;;;;;;20.37;62.82;100826.41;4917306;29;20295;-81
2022/09/12 01:31:07;;;;;;;3.35;1.52;;;;;;;20.30;62.26;100821.41;4917123;29;20059;-82
2022/09/12 01:33:55;;;;;;;;;;;;;;;20.26;62.56;100812.13;4916357;29;20050;-81
2022/09/12 01:36:33;;;;;;;1.70;1.20;;;;;;;20.37;63.60;100823.63;4916207;29;20416;-82
2022/09/12 01:39:30;;;;;;;3.10;1.48;;;;;;;20.43;62.91;100818.69;4916812;29;20044;-82
2022/09/12 01:42:26;;;;;;;2.78;1.45;;;;;;;20.32;64.09;100813.53;4916274;29;20051;-81
2022/09/12 01:45:08;;;;;;;1.38;1.27;;;;;;;20.26;64.06;100812.13;4916027;29;20056;-82
2022/09/12 01:47:44;;;;;;;1.40;1.20;;;;;;;20.12;64.32;100809.63;4908015;29;20051;-81
2022/09/12 01:50:17;;;;;;;1.45;1.35;;;;;;;20.19;64.54;100814.66;4917743;29;20060;-81
2022/09/12 01:53:01;;;;;;;1.40;1.30;;;;;;;20.14;64.17;100805.38;4932789;29;20050;-81
2022/09/12 01:55:33;;;;;;;1.88;1.20;;;;;;;20.23;63.81;100807.28;4933564;29;20051;-82
2022/09/12 01:58:13;;;;;;;2.42;1.33;;;;;;;20.13;64.58;100809.31;4934169;29;20043;-81
2022/09/12 02:00:51;;;;;;;1.45;1.35;;;;;;;20.08;64.84;100812.28;4933881;29;20491;-82
2022/09/12 02:03:26;;;;;;;1.50;1.40;;;;;;;20.04;64.65;100807.75;4927634;29;20059;-82
2022/09/12 02:06:00;;;;;;;1.60;1.50;;;;;;;20.13;65.24;100812.09;4930556;29;20052;-81
2022/09/12 02:08:33;;;;;;;3.75;1.20;;;;;;;20.03;65.68;100809.72;4931123;29;20059;-81
2022/09/12 02:11:11;;;;;;;1.52;1.42;;;;;;;20.05;66.54;100807.41;4921866;29;20052;-81
2022/09/12 02:13:54;;;;;;;1.35;1.25;;;;;;;20.03;65.89;100803.34;4934747;29;20058;-81
2022/09/12 02:16:30;;;;;;;1.48;1.38;;;;;;;20.10;65.34;100798.06;4932498;29;20486;-81
2022/09/12 02:19:06;;;;;;;1.73;1.60;;;;;;;20.11;65.40;100810.78;4929941;29;20078;-82
2022/09/12 02:21:38;;;;;;;2.00;1.80;;;;;;;19.94;65.88;100806.97;4927359;29;20047;-82
2022/09/12 02:24:09;;;;;;;1.35;1.15;;;;;;;20.10;66.17;100803.63;4914077;29;20052;-82
2022/09/12 02:27:02;;;;;;;1.20;1.10;;;;;;;20.26;65.61;100799.06;4928010;29;20834;-82
2022/09/12 02:29:30;;;;;;;1.40;1.30;;;;;;;20.14;65.55;100804.56;4907940;29;20061;-82
2022/09/12 02:32:03;;;;;;;3.53;1.25;;;;;;;20.16;65.26;100806.97;4919804;29;20388;-82
2022/09/12 02:34:34;;;;;;;1.33;1.23;;;;;;;20.13;66.57;100800.97;4922759;29;20052;-81
2022/09/12 02:37:17;;;;;;;1.60;1.50;;;;;;;20.05;66.62;100796.31;4915755;29;20526;-81
2022/09/12 02:39:46;;;;;;;1.58;1.48;;;;;;;19.98;66.48;100801.56;4915604;29;20063;-81
2022/09/12 02:42:14;;;;;;;1.52;1.40;;;;;;;19.94;66.96;100795.06;4919699;29;20057;-81
2022/09/12 02:44:42;;;;;;;3.38;1.20;;;;;;;19.80;67.29;100801.69;4919531;29;20491;-82
2022/09/12 02:47:19;;;;;;;3.67;1.50;;;;;;;19.89;66.93;100798.84;4913788;29;20056;-81
2022/09/12 02:49:47;;;;;;;1.40;1.25;;;;;;;19.88;67.19;100792.47;4914518;29;20051;-81
2022/09/12 02:52:15;;;;;;;1.65;1.55;;;;;;;19.82;67.81;100801.34;4921552;29;20063;-82
2022/09/12 02:54:44;;;;;;;1.40;1.30;;;;;;;19.71;67.80;100796.19;4914349;29;20054;-82
2022/09/12 02:57:16;;;;;;;2.47;1.17;;;;;;;19.77;68.30;100790.44;4915150;29;20759;-82
2022/09/12 02:59:53;;;;;;;1.63;1.27;;;;;;;19.72;68.46;100785.91;4915345;29;20052;-82
2022/09/12 03:02:56;;;;;;;1.48;1.38;;;;;;;19.80;67.89;100784.22;4915408;29;20483;-81
2022/09/12 03:05:34;;;;;;;1.60;1.50;;;;;;;19.86;67.56;100780.88;4913689;29;20044;-82
2022/09/12 03:08:30;;;;;;;1.30;1.20;;;;;;;19.90;67.54;100780.22;4920619;29;20059;-81
2022/09/12 03:11:25;;;;;;;2.05;1.70;;;;;;;19.91;67.53;100796.56;4916042;29;20048;-81
2022/09/12 03:14:06;;;;;;;1.85;1.67;;;;;;;19.93;68.08;100796.19;4913906;29;20048;-81
2022/09/12 03:17:02;;;;;;;2.35;1.48;;;;;;;19.88;67.30;100786.94;4914938;29;20040;-82
2022/09/12 03:19:30;;;;;;;2.03;1.45;;;;;;;19.89;68.71;100787.72;4917918;29;20414;-82
2022/09/12 03:22:06;;;;;;;2.38;1.85;;;;;;;19.92;67.63;100783.47;4917708;29;20399;-82
2022/09/12 03:24:41;;;;;;;1.50;1.40;;;;;;;19.91;67.08;100788.22;4914877;29;20060;-82
2022/09/12 03:27:18;;;;;;;2.70;1.63;;;;;;;19.96;66.45;100788.03;4915305;29;20044;-82
2022/09/12 03:29:47;;;;;;;2.72;1.90;;;;;;;19.86;66.54;100789.22;4915145;29;20048;-81
2022/09/12 03:32:15;;;;;;;2.08;1.85;;;;;;;19.90;66.32;100783.00;4914657;29;20044;-80
2022/09/12 03:34:43;;;;;;;1.58;1.48;;;;;;;19.93;65.62;100785.06;4920821;29;20040;-81
2022/09/12 03:37:11;;;;;;;1.60;1.50;;;;;;;19.90;66.35;100783.00;4919905;29;20399;-82
2022/09/12 03:39:39;;;;;;;1.83;1.60;;;;;;;19.88;65.40;100786.94;4915002;29;20040;-82
2022/09/12 03:42:07;;;;;;;1.60;1.50;;;;;;;19.95;65.88;100791.13;4921447;29;20526;-81
2022/09/12 03:44:35;;;;;;;3.20;1.40;;;;;;;19.95;66.63;100782.78;4918840;29;20052;-81
2022/09/12 03:47:03;;;;;;;1.80;1.70;;;;;;;19.86;66.55;100783.66;4915077;29;20060;-81
2022/09/12 03:49:37;;;;;;;;;;;;;;;19.87;66.02;100785.31;4913449;29;20052;-82
2022/09/12 03:52:04;;;;;;;1.25;1.15;;;;;;;19.84;66.55;100788.75;4925731;29;19950;-82
2022/09/12 03:54:32;;;;;;;1.42;1.33;;;;;;;19.81;66.89;100786.66;4915420;29;20044;-82
2022/09/12 03:57:00;;;;;;;1.20;1.10;;;;;;;19.79;66.69;100782.59;4920119;29;20494;-82
2022/09/12 03:59:28;;;;;;;2.20;1.48;;;;;;;19.81;65.74;100770.00;4937499;29;20047;-82
2022/09/12 04:01:56;;;;;;;1.27;1.17;;;;;;;19.74;66.58;100773.31;4931102;29;20044;-82
2022/09/12 04:04:24;;;;;;;1.63;1.52;;;;;;;19.66;65.95;100774.19;4933457;29;20055;-82
2022/09/12 04:06:51;;;;;;;1.40;1.30;;;;;;;19.77;65.84;100785.72;4937781;29;20395;-82
2022/09/12 04:09:19;;;;;;;1.40;1.30;;;;;;;19.74;65.36;100786.38;4933166;29;20048;-82
2022/09/12 04:11:47;;;;;;;1.40;1.23;;;;;;;19.69;66.06;100776.28;4924463;29;20040;-82
2022/09/12 04:14:15;;;;;;;1.27;1.17;;;;;;;19.82;65.55;100781.91;4919018;29;20048;-82
2022/09/12 04:16:43;;;;;;;1.77;1.23;;;;;;;19.79;65.71;100786.16;4936210;29;20612;-81
2022/09/12 04:19:11;;;;;;;1.48;1.27;;;;;;;19.68;66.19;100784.94;4935478;29;20051;-82
2022/09/12 04:21:39;;;;;;;1.63;1.40;;;;;;;19.72;66.00;100783.94;4935847;29;20051;-82
2022/09/12 04:24:07;;;;;;;1.30;1.20;;;;;;;19.70;66.49;100789.00;4934491;29;20052;-82
2022/09/12 04:26:34;;;;;;;2.17;1.20;;;;;;;19.66;65.99;100796.41;4924641;29;20051;-83
2022/09/12 04:29:02;;;;;;;18.17;2.17;;;;;;;19.87;66.81;100784.47;4923881;29;20484;-84
2022/09/12 04:31:30;;;;;;;1.63;1.00;;;;;;;20.48;63.81;100793.47;4922288;29;20074;-85
2022/09/12 04:34:00;;;;;;;1.98;1.45;;;;;;;21.03;61.50;100796.16;4919723;29;20056;-85
2022/09/12 04:36:28;;;;;;;1.55;1.30;;;;;;;21.41;60.34;100788.59;4918175;29;20051;-86
2022/09/12 04:38:56;;;;;;;1.20;1.10;;;;;;;21.35;59.53;100791.63;4904238;29;20399;-85
2022/09/12 04:41:33;;;;;;;1.27;1.10;;;;;;;21.71;58.29;100786.38;4920525;29;20047;-85
2022/09/12 04:44:06;;;;;;;1.50;1.40;;;;;;;21.59;58.25;100787.19;4918507;29;20059;-85
2022/09/12 04:46:36;;;;;;;2.28;1.00;;;;;;;21.55;57.17;100791.81;4926308;29;20047;-84
2022/09/12 04:49:05;;;;;;;2.08;1.00;;;;;;;21.46;57.76;100800.31;4910417;29;20491;-85
2022/09/12 04:51:35;;;;;;;1.15;1.08;;;;;;;21.32;58.43;100792.31;4923557;29;20051;-85
2022/09/12 04:54:06;;;;;;;2.75;1.08;;;;;;;21.44;58.12;100793.47;4917140;29;20044;-85
2022/09/12 04:56:38;;;;;;;1.40;1.10;;;;;;;21.74;57.16;100804.34;4913249;29;20415;-86
2022/09/12 04:59:07;;;;;;;1.02;0.95;;;;;;;21.78;56.90;100804.47;4917031;29;20471;-85
2022/09/12 05:01:35;;;;;;;2.92;1.13;;;;;;;21.36;58.39;100817.47;4917461;29;20063;-85
2022/09/12 05:04:03;;;;;;;3.40;1.05;;;;;;;21.34;58.92;100814.22;4920245;29;20036;-86
2022/09/12 05:06:34;;;;;;;2.13;1.15;;;;;;;21.63;58.40;100809.56;4924621;29;20067;-85
2022/09/12 05:09:04;;;;;;;1.10;1.00;;;;;;;21.81;57.80;100799.03;4925240;29;20051;-85
2022/09/12 05:11:35;;;;;;;0.80;0.80;;;;;;;21.34;58.50;100800.31;4932160;29;20067;-85
2022/09/12 05:14:23;;;;;;;1.85;0.80;;;;;;;21.39;57.30;100811.22;4933124;29;20055;-83
2022/09/12 05:16:51;;;;;;;1.10;1.00;;;;;;;21.60;57.20;100793.56;4920107;29;20506;-83
2022/09/12 05:19:19;;;;;;;3.38;1.20;;;;;;;21.54;57.32;100811.66;4915569;29;20492;-86
2022/09/12 05:21:46;;;;;;;2.47;1.20;;;;;;;21.30;59.05;100807.72;4914269;29;20055;-84
2022/09/12 05:24:14;;;;;;;3.38;1.00;;;;;;;21.46;57.69;100825.34;4921269;29;20052;-85
2022/09/12 05:26:42;;;;;;;1.13;1.02;;;;;;;21.35;58.04;100815.84;4917376;29;20052;-84
2022/09/12 05:29:11;;;;;;;1.15;0.90;;;;;;;21.59;57.58;100809.47;4916510;29;20052;-85
2022/09/12 05:31:40;;;;;;;1.20;1.10;;;;;;;21.79;57.75;100823.59;4912808;29;20055;-84
2022/09/12 05:34:08;;;;;;;0.93;0.93;;;;;;;22.06;57.00;100828.78;4917123;29;20063;-85
2022/09/12 05:36:37;;;;;;;1.92;1.20;;;;;;;22.13;56.18;100827.00;4924567;29;20054;-85
2022/09/12 05:39:05;;;;;;;1.85;0.98;;;;;;;21.90;56.93;100828.69;4921843;29;20517;-85
2022/09/12 05:41:34;;;;;;;2.35;1.05;;;;;;;22.29;55.86;100829.84;4934541;29;20399;-84
2022/09/12 05:44:05;;;;;;;2.40;1.30;;;;;;;22.60;54.75;100832.31;4935277;29;20051;-84
2022/09/12 05:46:39;;;;;;;1.65;1.23;;;;;;;22.80;54.09;100838.81;4934146;29;20062;-84
2022/09/12 05:49:10;;;;;;;2.07;1.27;;;;;;;22.90;53.88;100845.84;4931452;29;20506;-84
2022/09/12 05:51:42;;;;;;;1.17;1.08;;;;;;;22.87;54.21;100846.56;4923492;29;20303;-84
2022/09/12 05:54:15;;;;;;;1.23;1.13;;;;;;;22.77;54.14;100847.91;4934588;29;20052;-84
2022/09/12 05:56:44;;;;;;;3.72;0.98;;;;;;;22.93;53.45;100848.72;4935109;29;20051;-84
2022/09/12 05:59:16;;;;;;;1.17;1.08;;;;;;;22.86;53.89;100844.97;4935030;29;20048;-85
2022/09/12 06:01:44;;;;;;;1.08;0.90;;;;;;;22.86;54.26;100853.34;4906118;29;20051;-85
2022/09/12 06:04:12;;;;;;;1.65;1.20;;;;;;;23.05;53.87;100859.00;4935165;29;20043;-84
2022/09/12 06:06:44;;;;;;;3.17;0.95;;;;;;;23.00;53.98;100859.28;4935095;29;20062;-84
2022/09/12 06:09:14;;;;;;;0.80;0.80;;;;;;;22.92;54.32;100852.69;4935785;29;20044;-83
2022/09/12 06:11:44;;;;;;;3.50;1.10;;;;;;;23.06;53.56;100862.59;4918683;29;20043;-84
2022/09/12 06:14:14;;;;;;;3.50;1.00;;;;;;;23.19;53.61;100854.97;4917902;29;20059;-83
2022/09/12 06:16:42;;;;;;;2.55;1.00;;;;;;;23.18;53.64;100851.34;4917696;29;20043;-83
2022/09/12 06:19:20;;;;;;;0.93;0.88;;;;;;;23.42;52.99;100840.38;4933989;29;20055;-83
2022/09/12 06:21:50;;;;;;;1.45;0.98;;;;;;;23.38;53.34;100851.47;4933569;29;20063;-83
2022/09/12 06:24:19;;;;;;;1.70;1.10;;;;;;;23.56;53.17;100856.69;4933481;29;20067;-83
2022/09/12 06:26:48;;;;;;;1.48;1.38;;;;;;;23.53;52.60;100854.59;4934549;29;20043;-84
2022/09/12 06:29:17;;;;;;;1.15;1.02;;;;;;;23.53;52.62;100857.38;4934818;29;20067;-84
2022/09/12 06:31:45;;;;;;;1.15;0.90;;;;;;;23.46;53.37;100852.47;4934633;29;20047;-83
2022/09/12 06:34:15;;;;;;;1.55;1.00;;;;;;;23.62;54.07;100852.44;4935710;29;20054;-83
2022/09/12 06:36:47;;;;;;;1.30;1.20;;;;;;;23.44;55.37;100849.19;4935210;29;20040;-83
2022/09/12 06:39:18;;;;;;;2.33;0.98;;;;;;;23.60;54.59;100852.78;4935181;29;20051;-84
2022/09/12 06:41:47;;;;;;;1.73;1.08;;;;;;;23.73;53.63;100858.25;4918385;29;20075;-83
2022/09/12 06:44:19;;;;;;;1.20;1.13;;;;;;;23.96;53.25;100840.81;4934137;29;20047;-83
2022/09/12 06:46:48;;;;;;;1.42;1.10;;;;;;;24.24;52.23;100848.22;4932318;29;20048;-83
2022/09/12 06:49:16;;;;;;;2.92;1.60;;;;;;;24.18;52.48;100841.31;4929613;29;20055;-83
2022/09/12 06:51:44;;;;;;;1.73;1.13;;;;;;;24.36;52.42;100844.44;4923278;29;20051;-83
2022/09/12 06:54:14;;;;;;;2.15;1.30;;;;;;;24.52;52.02;100850.78;4932376;29;20514;-84
2022/09/12 06:56:43;;;;;;;3.17;1.25;;;;;;;24.43;52.17;100845.41;4933738;29;20047;-83
2022/09/12 06:59:11;;;;;;;4.32;1.42;;;;;;;24.29;54.28;100840.31;4934082;29;20059;-83
2022/09/12 07:01:40;;;;;;;1.73;1.60;;;;;;;24.18;53.52;100844.09;4933319;29;20063;-84
2022/09/12 07:04:09;;;;;;;2.75;1.33;;;;;;;24.15;53.81;100846.44;4934691;29;20048;-83
2022/09/12 07:06:39;;;;;;;2.40;2.13;;;;;;;24.19;54.75;100840.13;4934778;29;20043;-84
2022/09/12 07:09:11;;;;;;;1.95;1.30;;;;;;;24.43;52.79;100844.59;4934767;29;20044;-83
2022/09/12 07:11:40;;;;;;;3.65;1.40;;;;;;;24.73;51.70;100857.16;4934131;29;20047;-83
2022/09/12 07:14:12;;;;;;;1.70;1.45;;;;;;;25.00;51.49;100846.06;4934690;29;20055;-84
2022/09/12 07:16:40;;;;;;;2.47;1.48;;;;;;;25.04;51.58;100850.56;4933758;29;20067;-84
2022/09/12 07:19:09;;;;;;;1.42;1.33;;;;;;;25.09;51.54;100841.81;4932695;29;20051;-84
2022/09/12 07:21:40;;;;;;;2.60;1.42;;;;;;;24.93;51.58;100839.16;4931574;29;20044;-84
2022/09/12 07:24:09;;;;;;;5.13;1.40;;;;;;;24.89;52.20;100838.28;4932738;29;20059;-84
2022/09/12 07:26:39;;;;;;;1.40;1.27;;;;;;;25.09;50.87;100850.22;4933654;29;20399;-85
2022/09/12 07:29:12;;;;;;;1.30;1.17;;;;;;;25.32;50.62;100848.59;4934060;29;20498;-84
2022/09/12 07:32:01;;;;;;;1.42;1.25;;;;;;;25.56;51.19;100853.00;4933407;29;20410;-84
2022/09/12 07:34:29;;;;;;;1.67;1.52;;;;;;;25.57;51.48;100853.81;4932991;29;20051;-84
2022/09/12 07:36:57;;;;;;;2.78;1.52;;;;;;;25.52;50.58;100852.13;4931872;29;20048;-84
2022/09/12 07:39:25;;;;;;;2.53;1.60;;;;;;;25.40;51.11;100847.53;4934145;29;20047;-85
2022/09/12 07:41:53;;;;;;;2.50;1.95;;;;;;;25.47;51.14;100844.81;4934007;29;20066;-84
2022/09/12 07:44:21;;;;;;;3.75;2.25;;;;;;;25.67;50.71;100849.53;4934441;29;20039;-84
2022/09/12 07:46:49;;;;;;;4.47;2.72;;;;;;;25.60;50.72;100841.84;4932182;29;20047;-84
2022/09/12 07:49:17;;;;;;;4.88;1.90;;;;;;;25.87;49.58;100851.06;4928093;29;20056;-84
2022/09/12 07:51:45;;;;;;;3.72;2.20;;;;;;;25.98;48.97;100851.19;4922227;29;20058;-83
2022/09/12 07:54:13;;;;;;;3.20;2.25;;;;;;;25.76;49.08;100853.69;4932363;29;20137;-83
2022/09/12 07:56:41;;;;;;;3.10;2.55;;;;;;;25.99;49.95;100866.00;4917105;29;20052;-83
2022/09/12 07:59:09;;;;;;;5.53;1.95;;;;;;;25.88;47.93;100858.28;4933041;29;20055;-82
2022/09/12 08:01:38;;;;;;;3.03;2.55;;;;;;;25.76;49.47;100862.09;4933647;29;20401;-82
2022/09/12 08:04:07;;;;;;;2.90;2.20;;;;;;;26.00;49.28;100853.63;4917028;29;20060;-82
2022/09/12 08:06:35;;;;;;;5.63;2.95;;;;;;;25.92;49.48;100863.94;4934179;29;20040;-82
2022/09/12 08:09:05;;;;;;;5.00;2.05;;;;;;;26.01;49.36;100866.44;4934022;29;20040;-82
2022/09/12 08:11:33;;;;;;;5.15;2.40;;;;;;;25.97;49.09;100866.41;4916759;29;20068;-83
2022/09/12 08:14:04;;;;;;;3.40;1.83;;;;;;;26.10;48.97;100866.16;4934103;29;20403;-82
2022/09/12 08:16:33;;;;;;;1.48;1.38;;;;;;;26.14;49.07;100875.41;4932977;29;20617;-83
2022/09/12 08:19:02;;;;;;;4.53;2.03;;;;;;;26.15;48.41;100871.44;4915333;29;20058;-82
2022/09/12 08:21:31;;;;;;;7.53;1.60;;;;;;;25.95;48.51;100876.38;4931474;29;20044;-83
2022/09/12 08:24:02;;;;;;;1.13;1.13;;;;;;;25.85;49.64;100863.81;4932384;29;20043;-82
2022/09/12 08:26:32;;;;;;;1.20;1.10;;;;;;;26.03;49.04;100864.06;4932119;29;20402;-83
2022/09/12 08:29:00;;;;;;;2.03;1.17;;;;;;;26.09;49.26;100861.75;4933349;29;20058;-82
2022/09/12 08:31:27;;;;;;;2.45;1.27;;;;;;;26.24;49.34;100863.56;4933296;29;20057;-82
2022/09/12 08:33:56;;;;;;;0.90;0.90;;;;;;;26.09;48.75;100872.97;4933796;29;20562;-82
2022/09/12 08:36:26;;;;;;;1.75;1.08;;;;;;;26.12;49.50;100867.41;4933832;29;20051;-83
2022/09/12 08:38:56;;;;;;;1.67;1.15;;;;;;;26.30;48.68;100872.47;4933651;29;20052;-82
2022/09/12 08:41:39;;;;;;;1.25;0.98;;;;;;;26.35;48.06;100862.88;4916518;29;20047;-81
2022/09/12 08:44:13;;;;;;;2.10;1.40;;;;;;;26.03;48.40;100869.66;4936995;29;20047;-83
2022/09/12 08:46:46;;;;;;;5.45;1.50;;;;;;;26.23;48.93;100877.97;4934526;29;20051;-82
2022/09/12 08:49:28;;;;;;;1.85;0.95;;;;;;;26.46;48.81;100868.63;4932241;29;20048;-83
2022/09/12 08:52:01;;;;;;;4.90;1.40;;;;;;;26.65;48.25;100868.44;4910342;29;20044;-81
2022/09/12 08:54:31;;;;;;;1.15;1.05;;;;;;;26.59;48.67;100863.56;4934899;29;20047;-82
2022/09/12 08:57:04;;;;;;;1.85;1.27;;;;;;;26.56;48.35;100865.13;4936600;29;20070;-82
2022/09/12 08:59:41;;;;;;;1.15;1.00;;;;;;;26.48;46.75;100867.03;4936685;29;20407;-82
2022/09/12 09:02:25;;;;;;;0.90;0.80;;;;;;;26.61;47.75;100876.03;4936829;29;20051;-81
2022/09/12 09:05:11;;;;;;;1.35;0.52;;;;;;;26.64;46.33;100863.22;4936772;29;20047;-82
2022/09/12 09:07:54;;;;;;;1.13;0.57;;;;;;;26.58;46.66;100871.16;4935831;29;20379;-81
2022/09/12 09:10:40;;;;;;;3.40;0.70;;;;;;;26.75;46.77;100869.75;4936070;29;20051;-81
2022/09/12 09:14:46;;;;;;;0.77;0.77;;;;;;;26.86;45.44;100869.84;4936529;29;20051;-80
2022/09/12 09:16:30;;;;;;;1.17;0.90;;;;;;;27.02;44.98;100855.59;4917831;29;20047;-81
2022/09/12 09:19:03;;;;;;;1.13;0.73;;;;;;;26.93;45.99;100863.53;4917853;29;20507;-82
2022/09/12 09:21:49;;;;;;;1.10;0.80;;;;;;;26.82;46.71;100857.78;4914752;29;20059;-82
2022/09/12 09:24:23;;;;;;;1.05;0.77;;;;;;;26.88;47.67;100861.06;4928037;29;20064;-85
2022/09/12 09:27:05;;;;;;;1.73;1.25;;;;;;;26.73;48.06;100855.28;4936214;29;20047;-82
2022/09/12 09:29:54;;;;;;;1.20;1.02;;;;;;;26.82;49.00;100852.97;4936341;29;20677;-82
2022/09/12 09:32:31;;;;;;;3.10;1.10;;;;;;;26.98;47.84;100851.97;4936102;29;20052;-81
2022/09/12 09:35:33;;;;;;;1.13;0.85;;;;;;;27.28;47.52;100855.81;4936178;29;20044;-82
2022/09/12 09:38:29;;;;;;;1.20;1.00;;;;;;;27.00;47.79;100849.56;4936135;29;20048;-82
2022/09/12 09:41:20;;;;;;;1.58;0.90;;;;;;;26.92;47.75;100850.69;4936395;29;20044;-83
2022/09/12 09:43:48;;;;;;;1.27;1.08;;;;;;;26.88;47.25;100861.06;4918962;29;20048;-82
2022/09/12 09:46:16;;;;;;;1.38;0.88;;;;;;;26.87;47.70;100856.63;4934323;29;20056;-82
2022/09/12 09:48:48;;;;;;;1.02;0.80;;;;;;;26.90;47.57;100853.03;4934242;29;20039;-82
2022/09/12 09:51:24;;;;;;;3.92;0.80;;;;;;;26.89;46.49;100857.03;4934476;29;20403;-83
2022/09/12 09:54:23;;;;;;;0.73;0.73;;;;;;;26.84;46.79;100856.19;4933589;29;20058;-81
2022/09/12 09:56:51;;;;;;;2.38;0.88;;;;;;;26.77;46.25;100861.75;4935048;29;20056;-82
2022/09/12 09:59:19;;;;;;;1.25;0.80;;;;;;;26.99;45.74;100861.19;4919962;29;20048;-82
2022/09/12 10:01:53;;;;;;;1.48;0.77;;;;;;;26.89;44.46;100857.03;4916692;29;20044;-82
2022/09/12 10:04:28;;;;;;;0.73;0.73;;;;;;;26.90;44.17;100853.03;4915177;29;20052;-82
2022/09/12 10:06:58;;;;;;;3.60;0.88;;;;;;;27.14;45.08;100856.50;4916770;29;20040;-82
2022/09/12 10:09:35;;;;;;;2.13;1.27;;;;;;;27.16;44.90;100854.91;4916692;29;20040;-83
2022/09/12 10:12:25;;;;;;;0.45;0.43;;;;;;;27.21;44.01;100851.75;4916734;29;20049;-83
2022/09/12 10:14:59;;;;;;;1.30;0.70;;;;;;;27.36;44.25;100847.03;4916420;29;20052;-83
2022/09/12 10:17:48;;;;;;;0.40;0.40;;;;;;;27.67;43.38;100855.31;4915497;29;20382;-83
2022/09/12 10:20:44;;;;;;;0.43;0.43;;;;;;;27.62;43.34;100853.66;4897861;29;20411;-84
2022/09/12 10:23:19;;;;;;;0.38;0.38;;;;;;;27.47;44.10;100852.72;4870806;29;20047;-84
2022/09/12 10:25:52;;;;;;;1.42;0.75;;;;;;;27.40;42.96;100847.06;4891972;29;20403;-83
2022/09/12 10:28:29;;;;;;;0.52;0.45;;;;;;;27.44;43.47;100849.91;4896778;29;20063;-84
2022/09/12 10:31:00;;;;;;;0.50;0.50;;;;;;;27.50;43.05;100856.78;4879052;29;20063;-85
2022/09/12 10:33:28;;;;;;;1.73;0.60;;;;;;;27.65;42.57;100845.66;4901876;29;20047;-84
2022/09/12 10:35:56;;;;;;;0.85;0.70;;;;;;;27.68;42.21;100845.69;4898783;29;20491;-82
2022/09/12 10:38:30;;;;;;;0.57;0.45;;;;;;;27.79;42.44;100845.75;4916094;29;20048;-82
2022/09/12 10:41:10;;;;;;;1.33;0.50;;;;;;;27.92;41.54;100831.34;4916180;29;20048;-83
2022/09/12 10:43:40;;;;;;;0.60;0.60;;;;;;;28.04;43.21;100845.06;4932320;29;20076;-85
2022/09/12 10:46:16;;;;;;;0.57;0.55;;;;;;;28.20;42.22;100841.13;4934094;29;20043;-82
2022/09/12 10:48:50;;;;;;;0.50;0.43;;;;;;;28.22;42.50;100835.88;4933353;29;20043;-82
2022/09/12 10:51:24;;;;;;;0.50;0.50;;;;;;;28.08;43.01;100836.63;4933606;29;20051;-82
2022/09/12 10:54:01;;;;;;;0.80;0.65;;;;;;;28.09;42.42;100827.81;4933383;29;20385;-83
2022/09/12 10:56:46;;;;;;;3.42;0.88;;;;;;;28.27;41.28;100832.72;4935059;29;20062;-82
2022/09/12 10:59:55;;;;;;;1.10;0.57;;;;;;;28.15;42.27;100826.22;4934782;29;20043;-83
2022/09/12 11:02:52;;;;;;;1.40;1.00;;;;;;;28.19;42.42;100829.03;4854403;29;20061;-83
2022/09/12 11:05:44;;;;;;;1.20;0.80;;;;;;;28.20;41.93;100818.59;4857111;29;20053;-83
2022/09/12 11:08:31;;;;;;;0.75;0.75;;;;;;;28.52;43.27;100817.91;4891893;29;20052;-83
2022/09/12 11:11:12;;;;;;;2.83;0.93;;;;;;;28.46;42.85;100813.88;4929404;29;20051;-84
2022/09/12 11:13:59;;;;;;;1.17;1.05;;;;;;;28.70;41.29;100818.75;4934871;29;20044;-83
2022/09/12 11:16:39;;;;;;;1.15;0.95;;;;;;;28.53;41.11;100820.34;4916260;29;20051;-89
2022/09/12 11:19:31;;;;;;;0.60;0.60;;;;;;;28.72;40.43;100809.13;4933159;29;20063;-85
2022/09/12 11:22:03;;;;;;;1.10;0.80;;;;;;;28.80;41.45;100807.91;4917732;29;20054;-84
2022/09/12 11:24:43;;;;;;;2.00;1.15;;;;;;;28.82;40.28;100813.94;4926336;29;20059;-83
2022/09/12 11:27:46;;;;;;;0.80;0.80;;;;;;;29.06;39.72;100808.72;4922282;29;20047;-84
2022/09/12 11:30:16;;;;;;;0.63;0.63;;;;;;;29.14;39.35;100816.00;4928223;29;20060;-84
2022/09/12 11:33:09;;;;;;;1.00;0.95;;;;;;;29.32;38.78;100801.09;4929956;29;20048;-86
2022/09/12 11:35:47;;;;;;;0.60;0.60;;;;;;;29.35;39.43;100817.16;4919449;29;20044;-85
2022/09/12 11:38:43;;;;;;;1.83;1.05;;;;;;;29.35;39.13;100805.88;4925515;29;20395;-85
2022/09/12 11:41:35;;;;;;;0.75;0.75;;;;;;;28.86;40.49;100797.03;4922468;29;20051;-87
2022/09/12 11:44:24;;;;;;;1.83;1.05;;;;;;;28.80;39.79;100805.09;4920654;29;20056;-85
2022/09/12 11:46:53;;;;;;;1.10;1.00;;;;;;;28.81;40.92;100798.25;4929807;29;20044;-84
2022/09/12 11:49:36;;;;;;;1.10;1.10;;;;;;;29.21;40.25;100790.63;4912107;29;20488;-85
2022/09/12 11:52:22;;;;;;;2.17;0.70;;;;;;;29.51;39.85;100799.84;4926425;29;20051;-86
2022/09/12 11:55:00;;;;;;;1.35;1.02;;;;;;;29.80;38.97;100791.31;4930060;29;20052;-85
2022/09/12 11:57:37;;;;;;;0.77;0.60;;;;;;;29.50;40.03;100795.41;4931535;29;20040;-85
2022/09/12 12:00:07;;;;;;;1.23;1.13;;;;;;;29.15;39.59;100786.59;4922779;29;20049;-86